createdAt,value
2017-09-06T00:00:15.835Z,8.43
2017-09-06T00:02:45.365Z,9.00
2017-09-06T00:05:15.125Z,8.82
2017-09-06T00:07:44.557Z,7.30
2017-09-06T00:10:14.142Z,8.48
2017-09-06T00:12:43.707Z,8.02
2017-09-06T00:15:13.474Z,7.80
2017-09-06T00:17:43.049Z,7.65
2017-09-06T00:20:12.520Z,8.60
2017-09-06T00:22:42.245Z,7.60
2017-09-06T00:25:12.067Z,15.00
2017-09-06T00:27:41.774Z,8.38
2017-09-06T00:30:11.620Z,8.95
2017-09-06T00:32:41.070Z,8.03
2017-09-06T00:35:10.850Z,7.65
2017-09-06T00:37:40.577Z,7.95
2017-09-06T00:40:10.344Z,13.02
2017-09-06T00:42:40.069Z,9.15
2017-09-06T00:45:09.831Z,9.70
2017-09-06T00:47:39.571Z,10.55
2017-09-06T00:50:09.326Z,11.50
2017-09-06T00:52:38.537Z,10.50
2017-09-06T00:55:08.376Z,9.50
2017-09-06T00:57:37.749Z,11.10
2017-09-06T01:00:07.004Z,7.53
2017-09-06T01:02:36.552Z,9.18
2017-09-06T01:05:06.140Z,8.73
2017-09-06T01:07:35.856Z,8.25
2017-09-06T01:10:05.660Z,10.35
2017-09-06T01:12:35.399Z,8.88
2017-09-06T01:15:05.026Z,9.75
2017-09-06T01:17:35.120Z,12.02
2017-09-06T01:20:04.796Z,9.77
2017-09-06T01:22:34.509Z,9.25
2017-09-06T01:25:04.331Z,14.52
2017-09-06T01:27:33.901Z,10.65
2017-09-06T01:30:03.676Z,9.82
2017-09-06T01:32:33.440Z,9.30
2017-09-06T01:35:03.048Z,9.15
2017-09-06T01:37:32.788Z,8.57
2017-09-06T01:40:02.559Z,14.65
2017-09-06T01:42:32.293Z,9.52
2017-09-06T01:45:02.091Z,9.55
2017-09-06T01:47:31.813Z,8.77
2017-09-06T01:50:01.771Z,10.50
2017-09-06T01:52:30.980Z,12.05
2017-09-06T01:55:00.710Z,11.10
2017-09-06T01:57:30.457Z,12.82
2017-09-06T02:00:00.275Z,9.77
2017-09-06T02:02:29.821Z,10.43
2017-09-06T02:04:59.401Z,10.57
2017-09-06T02:07:29.824Z,11.40
2017-09-06T02:09:59.557Z,9.68
2017-09-06T02:12:29.288Z,9.98
2017-09-06T02:14:59.043Z,10.07
2017-09-06T02:17:28.780Z,13.75
2017-09-06T02:19:58.516Z,10.07
2017-09-06T02:22:28.248Z,14.00
2017-09-06T02:24:57.973Z,9.75
2017-09-06T02:27:27.696Z,9.52
2017-09-06T02:29:57.447Z,12.37
2017-09-06T02:32:27.193Z,10.93
2017-09-06T02:34:56.951Z,10.70
2017-09-06T02:37:26.689Z,12.80
2017-09-06T02:39:56.426Z,9.98
2017-09-06T02:42:25.832Z,11.98
2017-09-06T02:44:55.553Z,9.75
2017-09-06T02:47:25.287Z,9.75
2017-09-06T02:49:54.673Z,12.45
2017-09-06T02:52:24.473Z,12.05
2017-09-06T02:54:54.204Z,15.05
2017-09-06T02:57:23.960Z,11.70
2017-09-06T02:59:53.705Z,11.93
2017-09-06T03:02:23.477Z,9.23
2017-09-06T03:04:53.220Z,11.10
2017-09-06T03:07:22.982Z,13.02
2017-09-06T03:09:52.712Z,21.35
2017-09-06T03:12:22.441Z,10.43
2017-09-06T03:14:52.179Z,8.60
2017-09-06T03:17:21.929Z,10.05
2017-09-06T03:19:51.769Z,12.05
2017-09-06T03:22:21.499Z,9.68
2017-09-06T03:24:51.244Z,11.82
2017-09-06T03:27:20.799Z,15.18
2017-09-06T03:29:50.753Z,13.82
2017-09-06T03:32:20.551Z,9.70
2017-09-06T03:34:50.273Z,10.75
2017-09-06T03:37:20.009Z,12.15
2017-09-06T03:39:49.739Z,10.85
2017-09-06T03:42:19.472Z,12.10
2017-09-06T03:44:49.025Z,11.35
2017-09-06T03:47:18.939Z,10.38
2017-09-06T03:49:48.656Z,11.50
2017-09-06T03:52:18.391Z,12.73
2017-09-06T03:54:48.125Z,10.70
2017-09-06T03:57:17.858Z,10.50
2017-09-06T03:59:47.603Z,12.88
2017-09-06T04:02:17.337Z,25.65
2017-09-06T04:04:47.065Z,11.07
2017-09-06T04:07:16.809Z,12.45
2017-09-06T04:09:47.441Z,10.90
2017-09-06T04:12:17.174Z,13.15
2017-09-06T04:14:46.995Z,17.17
2017-09-06T04:17:16.756Z,9.57
2017-09-06T04:19:46.470Z,9.80
2017-09-06T04:22:16.209Z,10.45
2017-09-06T04:29:24.029Z,10.15
2017-09-06T04:31:53.485Z,8.37
2017-09-06T04:34:23.216Z,9.63
2017-09-06T04:36:52.953Z,10.25
2017-09-06T04:39:22.757Z,9.95
2017-09-06T04:41:52.516Z,10.27
2017-09-06T04:44:22.265Z,10.68
2017-09-06T04:46:52.030Z,14.10
2017-09-06T04:49:21.760Z,13.00
2017-09-06T04:51:51.308Z,9.95
2017-09-06T04:54:20.917Z,14.60
2017-09-06T04:56:50.641Z,12.70
2017-09-06T04:59:20.388Z,10.60
2017-09-06T05:01:50.132Z,12.73
2017-09-06T05:04:19.864Z,14.52
2017-09-06T05:06:49.316Z,12.73
2017-09-06T05:09:19.054Z,15.98
2017-09-06T05:11:49.528Z,13.93
2017-09-06T05:14:18.979Z,14.30
2017-09-06T05:16:48.484Z,12.17
2017-09-06T05:19:17.945Z,11.50
2017-09-06T05:21:47.418Z,11.43
2017-09-06T05:24:17.188Z,11.05
2017-09-06T05:26:46.648Z,14.47
2017-09-06T05:29:16.107Z,23.63
2017-09-06T05:31:45.740Z,12.97
2017-09-06T05:34:15.213Z,14.10
2017-09-06T05:36:44.706Z,12.63
2017-09-06T05:39:14.173Z,16.10
2017-09-06T05:41:43.630Z,12.97
2017-09-06T05:44:13.180Z,22.63
2017-09-06T05:46:42.616Z,14.10
2017-09-06T05:49:12.088Z,14.87
2017-09-06T05:51:41.546Z,15.90
2017-09-06T05:54:11.011Z,11.90
2017-09-06T05:56:40.460Z,11.90
2017-09-06T05:59:09.931Z,13.70
2017-09-06T06:01:39.380Z,14.17
2017-09-06T06:04:08.832Z,13.50
2017-09-06T06:06:38.288Z,14.23
2017-09-06T06:09:07.732Z,12.23
2017-09-06T06:11:37.187Z,13.60
2017-09-06T06:14:06.658Z,14.90
2017-09-06T06:16:36.100Z,12.47
2017-09-06T06:19:05.580Z,12.40
2017-09-06T06:21:35.058Z,20.07
2017-09-06T06:24:04.516Z,18.57
2017-09-06T06:26:33.973Z,16.73
2017-09-06T06:29:03.420Z,13.17
2017-09-06T06:31:32.873Z,16.27
2017-09-06T06:34:02.383Z,15.90
2017-09-06T06:36:31.849Z,13.43
2017-09-06T06:39:01.281Z,12.37
2017-09-06T06:41:30.795Z,13.63
2017-09-06T06:44:00.308Z,15.90
2017-09-06T06:46:29.757Z,13.83
2017-09-06T06:48:59.256Z,20.63
2017-09-06T06:51:28.717Z,18.13
2017-09-06T06:53:58.164Z,56.40
2017-09-06T06:56:27.620Z,43.53
2017-09-06T06:58:57.074Z,29.23
2017-09-06T07:01:26.527Z,25.20
2017-09-06T07:03:55.992Z,22.00
2017-09-06T07:06:25.445Z,22.40
2017-09-06T07:08:54.886Z,29.63
2017-09-06T07:11:24.365Z,23.17
2017-09-06T07:13:53.825Z,26.47
2017-09-06T07:16:23.350Z,25.93
2017-09-06T07:18:52.816Z,22.27
2017-09-06T07:21:22.294Z,21.47
2017-09-06T07:23:51.743Z,23.67
2017-09-06T07:26:21.291Z,26.70
2017-09-06T07:28:50.774Z,46.03
2017-09-06T07:31:20.321Z,35.13
2017-09-06T07:33:49.769Z,24.97
2017-09-06T07:36:19.220Z,24.30
2017-09-06T07:38:48.832Z,32.00
2017-09-06T07:41:18.280Z,24.00
2017-09-06T07:43:47.845Z,30.13
2017-09-06T07:46:17.277Z,28.60
2017-09-06T07:48:46.796Z,32.73
2017-09-06T07:51:16.248Z,36.30
2017-09-06T07:53:45.697Z,36.13
2017-09-06T07:56:15.153Z,39.90
2017-09-06T07:58:44.597Z,36.20
2017-09-06T08:01:14.055Z,36.17
2017-09-06T08:03:43.513Z,37.70
2017-09-06T08:06:12.957Z,42.20
2017-09-06T08:08:42.462Z,43.93
2017-09-06T08:11:11.997Z,36.93
2017-09-06T08:13:41.463Z,41.87
2017-09-06T08:16:10.933Z,34.83
2017-09-06T08:18:40.492Z,33.73
2017-09-06T08:21:09.937Z,32.40
2017-09-06T08:23:39.931Z,37.00
2017-09-06T08:26:09.381Z,32.00
2017-09-06T08:28:38.829Z,34.67
2017-09-06T08:31:08.303Z,34.90
2017-09-06T08:33:37.760Z,34.77
2017-09-06T08:36:07.217Z,37.23
2017-09-06T08:38:36.677Z,32.93
2017-09-06T08:41:06.213Z,34.67
2017-09-06T08:43:35.680Z,37.70
2017-09-06T08:46:05.292Z,30.30
2017-09-06T08:48:34.745Z,41.17
2017-09-06T08:51:04.234Z,37.40
2017-09-06T08:53:33.697Z,35.90
2017-09-06T08:56:03.161Z,31.33
2017-09-06T08:58:32.629Z,36.23
2017-09-06T09:01:02.069Z,38.90
2017-09-06T09:03:31.514Z,28.67
2017-09-06T09:06:00.954Z,33.63
2017-09-06T09:08:30.408Z,31.53
2017-09-06T09:10:59.869Z,26.60
2017-09-06T09:13:29.330Z,14.50
2017-09-06T09:15:58.770Z,14.97
2017-09-06T09:18:28.233Z,10.97
2017-09-06T09:20:57.708Z,11.93
2017-09-06T09:23:27.155Z,8.50
2017-09-06T09:25:56.419Z,8.57
2017-09-06T09:28:25.518Z,10.10
2017-09-06T09:30:54.960Z,8.20
2017-09-06T09:33:24.408Z,8.20
2017-09-06T09:35:53.841Z,8.83
2017-09-06T09:38:23.303Z,8.13
2017-09-06T09:40:52.744Z,9.60
2017-09-06T09:43:22.209Z,8.47
2017-09-06T09:45:51.657Z,7.87
2017-09-06T09:48:21.096Z,7.27
2017-09-06T09:50:50.549Z,8.03
2017-09-06T09:53:19.988Z,8.23
2017-09-06T09:55:49.436Z,7.57
2017-09-06T09:58:18.885Z,10.00
2017-09-06T10:00:48.369Z,8.60
2017-09-06T10:03:17.796Z,17.30
2017-09-06T10:05:47.236Z,8.90
2017-09-06T10:08:16.698Z,8.50
2017-09-06T10:10:46.132Z,8.43
2017-09-06T10:13:15.593Z,9.80
2017-09-06T10:15:45.055Z,12.40
2017-09-06T10:18:14.507Z,10.03
2017-09-06T10:20:43.947Z,11.07
2017-09-06T10:23:13.400Z,10.50
2017-09-06T10:25:42.844Z,10.93
2017-09-06T10:28:12.280Z,11.67
2017-09-06T10:30:41.725Z,9.40
2017-09-06T10:33:11.169Z,10.30
2017-09-06T10:35:40.620Z,9.33
2017-09-06T10:38:10.061Z,8.20
2017-09-06T10:40:39.522Z,8.77
2017-09-06T10:43:08.953Z,8.80
2017-09-06T10:45:38.421Z,10.87
2017-09-06T10:48:07.861Z,9.50
2017-09-06T10:50:37.376Z,9.50
2017-09-06T10:53:06.812Z,9.10
2017-09-06T10:55:36.261Z,9.60
2017-09-06T10:58:05.700Z,8.07
2017-09-06T11:00:35.148Z,7.50
2017-09-06T11:03:04.419Z,8.07
2017-09-06T11:05:33.882Z,7.63
2017-09-06T11:08:03.348Z,6.80
2017-09-06T11:10:32.795Z,7.63
2017-09-06T11:13:02.229Z,7.17
2017-09-06T11:15:31.707Z,6.70
2017-09-06T11:18:01.168Z,7.67
2017-09-06T11:20:30.596Z,7.07
2017-09-06T11:23:00.048Z,7.20
2017-09-06T11:25:29.480Z,7.87
2017-09-06T11:27:58.920Z,6.60
2017-09-06T11:30:28.377Z,6.37
2017-09-06T11:32:57.846Z,5.50
2017-09-06T11:35:27.296Z,6.33
2017-09-06T11:37:56.737Z,5.20
2017-09-06T11:40:26.169Z,5.80
2017-09-06T11:42:55.645Z,6.00
2017-09-06T11:45:25.154Z,7.03
2017-09-06T11:47:54.607Z,6.93
2017-09-06T11:50:23.912Z,6.77
2017-09-06T11:52:53.390Z,6.67
2017-09-06T11:55:22.877Z,4.23
2017-09-06T11:57:52.330Z,5.10
2017-09-06T12:00:21.810Z,6.17
2017-09-06T12:02:51.246Z,5.93
2017-09-06T12:05:20.733Z,5.27
2017-09-06T12:07:50.175Z,5.90
2017-09-06T12:10:19.466Z,6.37
2017-09-06T12:12:48.918Z,7.60
2017-09-06T12:15:18.420Z,6.70
2017-09-06T12:17:48.914Z,6.80
2017-09-06T12:20:18.400Z,4.20
2017-09-06T12:22:47.846Z,4.93
2017-09-06T12:25:17.336Z,4.47
2017-09-06T12:27:46.844Z,6.97
2017-09-06T12:30:16.329Z,8.23
2017-09-06T12:32:45.585Z,5.90
2017-09-06T12:35:14.914Z,5.10
2017-09-06T12:37:44.152Z,5.50
2017-09-06T12:40:13.440Z,6.83
2017-09-06T12:42:42.676Z,4.60
2017-09-06T12:45:11.945Z,6.00
2017-09-06T12:47:41.195Z,5.00
2017-09-06T12:50:10.475Z,4.73
2017-09-06T12:52:39.724Z,5.63
2017-09-06T12:55:09.004Z,5.77
2017-09-06T12:57:38.265Z,5.23
2017-09-06T13:00:07.517Z,6.10
2017-09-06T13:02:36.785Z,4.70
2017-09-06T13:05:06.060Z,4.57
2017-09-06T13:07:35.291Z,4.10
2017-09-06T13:10:04.616Z,4.70
2017-09-06T13:12:33.929Z,4.97
2017-09-06T13:15:03.230Z,4.03
2017-09-06T13:17:32.469Z,2.87
2017-09-06T13:20:01.731Z,3.30
2017-09-06T13:22:30.966Z,2.70
2017-09-06T13:25:00.378Z,2.93
2017-09-06T13:27:29.621Z,3.17
2017-09-06T13:29:58.883Z,2.93
2017-09-06T13:32:28.122Z,2.73
2017-09-06T13:34:57.184Z,2.53
2017-09-06T13:37:26.429Z,2.83
2017-09-06T13:39:55.698Z,2.67
2017-09-06T13:42:25.035Z,3.47
2017-09-06T13:44:54.252Z,2.20
2017-09-06T13:47:23.498Z,2.30
2017-09-06T13:49:52.767Z,2.63
2017-09-06T13:52:22.035Z,1.93
2017-09-06T13:54:54.621Z,2.50
2017-09-06T13:57:23.913Z,2.10
2017-09-06T13:59:53.132Z,1.90
2017-09-06T14:02:22.388Z,1.93
2017-09-06T14:04:51.629Z,1.67
2017-09-06T14:07:20.924Z,1.80
2017-09-06T14:09:50.173Z,1.90
2017-09-06T14:12:19.463Z,2.53
2017-09-06T14:14:48.694Z,2.00
2017-09-06T14:17:17.937Z,2.10
2017-09-06T14:19:47.256Z,2.17
2017-09-06T14:22:16.537Z,1.90
2017-09-06T14:24:45.814Z,2.60
2017-09-06T14:27:15.092Z,2.13
2017-09-06T14:29:44.515Z,1.93
2017-09-06T14:32:13.753Z,2.10
2017-09-06T14:34:42.984Z,3.73
2017-09-06T14:37:12.250Z,2.10
2017-09-06T14:39:41.497Z,3.40
2017-09-06T14:42:10.736Z,1.80
2017-09-06T14:44:39.988Z,2.00
2017-09-06T14:47:09.241Z,2.20
2017-09-06T14:49:38.484Z,2.10
2017-09-06T14:52:07.722Z,1.73
2017-09-06T14:54:36.957Z,2.87
2017-09-06T14:57:06.209Z,1.83
2017-09-06T14:59:36.370Z,2.00
2017-09-06T15:02:05.445Z,1.70
2017-09-06T15:04:34.710Z,1.97
2017-09-06T15:07:03.950Z,1.70
2017-09-06T15:09:33.194Z,1.60
2017-09-06T15:12:02.470Z,1.63
2017-09-06T15:14:31.804Z,2.20
2017-09-06T15:17:01.053Z,1.90
2017-09-06T15:19:30.300Z,2.03
2017-09-06T15:21:59.554Z,2.60
2017-09-06T15:24:28.808Z,2.60
2017-09-06T15:26:58.050Z,1.77
2017-09-06T15:29:27.305Z,3.27
2017-09-06T15:31:56.568Z,2.90
2017-09-06T15:34:25.849Z,2.00
2017-09-06T15:36:55.084Z,2.30
2017-09-06T15:39:24.398Z,3.40
2017-09-06T15:41:53.618Z,2.13
2017-09-06T15:44:22.858Z,3.80
2017-09-06T15:46:52.158Z,2.83
2017-09-06T15:49:21.369Z,3.50
2017-09-06T15:51:50.615Z,2.43
2017-09-06T15:54:19.873Z,2.23
2017-09-06T15:56:49.119Z,2.17
2017-09-06T15:59:18.361Z,3.13
2017-09-06T16:01:47.610Z,3.47
2017-09-06T16:04:16.870Z,4.23
2017-09-06T16:06:46.127Z,2.90
2017-09-06T16:09:15.378Z,2.33
2017-09-06T16:11:44.831Z,2.60
2017-09-06T16:14:14.269Z,4.17
2017-09-06T16:16:43.710Z,2.40
2017-09-06T16:19:13.150Z,3.07
2017-09-06T16:21:42.652Z,7.07
2017-09-06T16:24:12.082Z,3.10
2017-09-06T16:26:41.556Z,3.03
2017-09-06T16:29:11.341Z,3.20
2017-09-06T16:31:40.773Z,5.17
2017-09-06T16:34:10.277Z,3.93
2017-09-06T16:36:39.708Z,3.03
2017-09-06T16:39:09.161Z,2.93
2017-09-06T16:41:38.593Z,3.27
2017-09-06T16:44:08.041Z,2.80
2017-09-06T16:46:37.568Z,2.50
2017-09-06T16:49:07.037Z,3.03
2017-09-06T16:51:36.479Z,2.67
2017-09-06T16:54:05.929Z,5.13
2017-09-06T16:56:35.357Z,4.73
2017-09-06T16:59:04.807Z,2.50
2017-09-06T17:01:34.255Z,2.83
2017-09-06T17:04:03.553Z,2.20
2017-09-06T17:06:32.997Z,2.20
2017-09-06T17:09:02.443Z,3.00
2017-09-06T17:11:31.710Z,3.07
2017-09-06T17:14:01.147Z,3.27
2017-09-06T17:16:30.619Z,3.00
2017-09-06T17:19:00.082Z,2.77
2017-09-06T17:21:29.407Z,2.70
2017-09-06T17:23:58.874Z,3.50
2017-09-06T17:26:28.307Z,5.83
2017-09-06T17:28:57.753Z,3.30
2017-09-06T17:31:27.257Z,3.53
2017-09-06T17:33:56.674Z,4.20
2017-09-06T17:36:26.152Z,4.23
2017-09-06T17:38:55.593Z,3.80
2017-09-06T17:41:25.211Z,3.50
2017-09-06T17:43:54.641Z,3.47
2017-09-06T17:46:24.118Z,5.17
2017-09-06T17:48:53.541Z,3.90
2017-09-06T17:51:22.998Z,4.73
2017-09-06T17:53:52.465Z,3.60
2017-09-06T17:56:21.918Z,4.30
2017-09-06T17:58:51.376Z,4.90
2017-09-06T18:01:20.827Z,3.50
2017-09-06T18:03:50.343Z,3.43
2017-09-06T18:06:19.910Z,4.73
2017-09-06T18:08:49.350Z,3.10
2017-09-06T18:11:18.849Z,5.17
2017-09-06T18:13:48.318Z,4.03
2017-09-06T18:16:17.843Z,4.53
2017-09-06T18:18:47.284Z,4.23
2017-09-06T18:21:16.744Z,4.30
2017-09-06T18:23:46.195Z,1.77
2017-09-06T18:26:15.705Z,1.80
2017-09-06T18:28:45.159Z,4.70
2017-09-06T18:31:14.629Z,2.03
2017-09-06T18:33:44.090Z,2.93
2017-09-06T18:36:13.345Z,6.63
2017-09-06T18:38:42.826Z,2.70
2017-09-06T18:41:12.288Z,8.10
2017-09-06T18:43:41.723Z,2.33
2017-09-06T18:46:11.186Z,2.10
2017-09-06T18:48:40.664Z,4.87
2017-09-06T18:51:10.150Z,4.43
2017-09-06T18:53:39.609Z,4.47
2017-09-06T18:56:09.106Z,7.00
2017-09-06T18:58:38.566Z,4.10
2017-09-06T19:01:08.066Z,3.93
2017-09-06T19:03:37.511Z,3.80
2017-09-06T19:06:06.959Z,4.30
2017-09-06T19:08:36.414Z,4.00
2017-09-06T19:11:05.881Z,2.70
2017-09-06T19:13:35.333Z,2.87
2017-09-06T19:16:04.798Z,5.50
2017-09-06T19:18:34.304Z,3.97
2017-09-06T19:21:03.787Z,2.90
2017-09-06T19:23:33.246Z,2.80
2017-09-06T19:26:02.716Z,3.13
2017-09-06T19:28:32.189Z,3.17
2017-09-06T19:31:01.629Z,5.87
2017-09-06T19:33:31.089Z,8.50
2017-09-06T19:36:00.620Z,6.97
2017-09-06T19:38:30.070Z,4.40
2017-09-06T19:40:59.527Z,3.90
2017-09-06T19:43:29.032Z,4.70
2017-09-06T19:45:58.518Z,4.40
2017-09-06T19:48:27.943Z,4.70
2017-09-06T19:50:57.425Z,4.70
2017-09-06T19:53:26.873Z,8.20
2017-09-06T19:55:56.342Z,5.13
2017-09-06T19:58:25.791Z,10.83
2017-09-06T20:00:55.239Z,8.93
2017-09-06T20:03:24.709Z,4.40
2017-09-06T20:05:54.170Z,8.47
2017-09-06T20:08:23.621Z,5.33
2017-09-06T20:10:53.090Z,8.80
2017-09-06T20:13:22.528Z,9.10
2017-09-06T20:15:52.130Z,16.77
2017-09-06T20:18:21.606Z,12.73
2017-09-06T20:20:51.261Z,6.50
2017-09-06T20:23:20.738Z,6.60
2017-09-06T20:25:50.197Z,6.90
2017-09-06T20:28:19.669Z,10.10
2017-09-06T20:30:49.594Z,8.13
2017-09-06T20:33:19.060Z,5.63
2017-09-06T20:35:48.525Z,8.50
2017-09-06T20:38:18.263Z,8.80
2017-09-06T20:40:47.841Z,4.50
2017-09-06T20:43:17.295Z,5.17
2017-09-06T20:45:46.770Z,5.77
2017-09-06T20:48:16.257Z,7.27
2017-09-06T20:50:45.695Z,4.50
2017-09-06T20:53:15.193Z,5.83
2017-09-06T20:55:44.636Z,6.43
2017-09-06T20:58:14.120Z,4.80
2017-09-06T21:00:43.569Z,7.73
2017-09-06T21:03:13.308Z,5.20
2017-09-06T21:05:42.770Z,4.73
2017-09-06T21:08:12.214Z,6.50
2017-09-06T21:10:41.673Z,8.80
2017-09-06T21:13:11.238Z,5.73
2017-09-06T21:15:40.701Z,6.20
2017-09-06T21:18:10.154Z,5.67
2017-09-06T21:20:39.845Z,8.20
2017-09-06T21:23:09.284Z,4.57
2017-09-06T21:25:38.743Z,5.40
2017-09-06T21:28:08.198Z,4.47
2017-09-06T21:30:37.639Z,4.90
2017-09-06T21:33:07.148Z,6.07
2017-09-06T21:35:36.617Z,4.97
2017-09-06T21:38:06.060Z,4.13
2017-09-06T21:40:35.509Z,4.70
2017-09-06T21:43:04.969Z,3.97
2017-09-06T21:45:34.247Z,4.17
2017-09-06T21:48:03.697Z,3.07
2017-09-06T21:50:33.194Z,4.13
2017-09-06T21:53:02.641Z,3.90
2017-09-06T21:55:32.086Z,2.37
2017-09-06T21:58:01.544Z,2.30
2017-09-06T22:00:31.001Z,2.63
2017-09-06T22:03:00.296Z,3.20
2017-09-06T22:05:29.782Z,3.80
2017-09-06T22:07:59.222Z,3.27
2017-09-06T22:10:28.677Z,3.33
2017-09-06T22:12:58.126Z,3.37
2017-09-06T22:15:27.569Z,4.73
2017-09-06T22:17:57.278Z,7.33
2017-09-06T22:20:26.972Z,4.80
2017-09-06T22:23:27.989Z,4.80
2017-09-06T22:25:57.428Z,4.50
2017-09-06T22:28:26.895Z,3.83
2017-09-06T22:30:56.378Z,3.43
2017-09-06T22:33:25.819Z,3.70
2017-09-06T22:35:55.269Z,3.67
2017-09-06T22:38:24.709Z,4.30
2017-09-06T22:40:54.177Z,3.67
2017-09-06T22:43:23.653Z,9.50
2017-09-06T22:45:53.099Z,3.03
2017-09-06T22:48:22.560Z,8.20
2017-09-06T22:50:52.004Z,4.67
2017-09-06T22:53:21.760Z,3.00
2017-09-06T22:55:51.030Z,3.47
2017-09-06T22:58:20.469Z,7.43
2017-09-06T23:00:49.928Z,4.07
2017-09-06T23:03:19.192Z,3.60
2017-09-06T23:05:48.637Z,6.90
2017-09-06T23:08:18.090Z,6.03
2017-09-06T23:10:47.894Z,3.08
2017-09-06T23:13:17.389Z,3.83
2017-09-06T23:15:46.725Z,2.77
2017-09-06T23:18:16.182Z,3.23
2017-09-06T23:20:45.681Z,3.23
2017-09-06T23:23:14.988Z,2.97
2017-09-06T23:25:44.465Z,4.77
2017-09-06T23:28:14.212Z,4.18
2017-09-06T23:30:43.977Z,5.50
2017-09-06T23:33:13.733Z,10.57
2017-09-06T23:35:43.502Z,8.30
2017-09-06T23:38:13.485Z,6.35
2017-09-06T23:40:43.420Z,9.68
2017-09-06T23:43:13.158Z,8.00
2017-09-06T23:45:42.906Z,4.90
2017-09-06T23:48:12.648Z,3.55
2017-09-06T23:50:42.389Z,3.50
2017-09-06T23:53:12.123Z,4.55
2017-09-06T23:55:41.852Z,5.87
2017-09-06T23:58:11.638Z,6.47
